ADDS METAR Data INFO
IDs: Format: Raw Decoded Include TAF

Data at: 1133 UTC 29 May 2017

KECS 291115Z AUTO 36006KT 10SM SCT080 05/02 A3019 RMK AO2
KECS 291055Z AUTO 36007KT 10SM SCT080 04/03 A3019 RMK AO2
KECS 291035Z AUTO 32006KT 10SM CLR 04/03 A3019 RMK AO2
KECS 291015Z AUTO 35004KT 10SM CLR 04/03 A3019 RMK AO2
KECS 290955Z AUTO 00000KT 10SM CLR 05/03 A3018 RMK AO2
KECS 290935Z AUTO 36008KT 10SM CLR 06/04 A3017 RMK AO2
KECS 290915Z AUTO 36009KT 10SM CLR 06/05 A3017 RMK AO2
KECS 290855Z AUTO 33005KT 10SM CLR 05/03 A3017 RMK AO2
KECS 290835Z AUTO 32003KT 10SM CLR 06/05 A3018 RMK AO2
KECS 290815Z AUTO 35005KT 10SM CLR 06/03 A3018 RMK AO2
KECS 290755Z AUTO 36008KT 10SM CLR 06/03 A3018 RMK AO2
KECS 290735Z AUTO 31009KT 10SM CLR 07/04 A3018 RMK AO2
KECS 290715Z AUTO 35010KT 10SM CLR 07/04 A3018 RMK AO2
KECS 290655Z AUTO 36008KT 10SM CLR 07/03 A3018 RMK AO2
KECS 290635Z AUTO 36008KT 10SM CLR 07/03 A3018 RMK AO2
KECS 290615Z AUTO 36009KT 10SM CLR 08/03 A3017 RMK AO2
KECS 290555Z AUTO 35007KT 10SM CLR 08/03 A3017 RMK AO2
KECS 290535Z AUTO 34006KT 10SM CLR 08/03 A3018 RMK AO2
KECS 290515Z AUTO 35007KT 10SM CLR 08/03 A3017 RMK AO2
KECS 290455Z AUTO 33006KT 10SM CLR 08/03 A3017 RMK AO2
KECS 290435Z AUTO 34005KT 10SM CLR 09/03 A3017 RMK AO2
KECS 290415Z AUTO 28008KT 10SM CLR 10/04 A3017 RMK AO2
KECS 290355Z AUTO 34006KT 10SM CLR 11/04 A3017 RMK AO2
KECS 290335Z AUTO 33009KT 10SM CLR 12/04 A3016 RMK AO2
KECS 290315Z AUTO 33008KT 10SM SCT095 12/03 A3015 RMK AO2
KECS 290255Z AUTO 31008KT 10SM SCT095 13/03 A3014 RMK AO2 LTG DSNT W
KECS 290235Z AUTO 31013G18KT 10SM CLR 13/03 A3015 RMK AO2
KECS 290215Z AUTO 32012G17KT 10SM CLR 13/03 A3015 RMK AO2 LTG DSNT SW
KECS 290155Z AUTO 32012G18KT 10SM CLR 15/02 A3015 RMK AO2
KECS 290135Z AUTO 33012G17KT 10SM CLR 15/02 A3014 RMK AO2
KECS 290115Z AUTO 33015G20KT 10SM CLR 15/02 A3014 RMK AO2
KECS 290055Z AUTO 33016G20KT 10SM CLR 15/02 A3014 RMK AO2
KECS 290035Z AUTO 33012G21KT 10SM CLR 15/03 A3013 RMK AO2
KECS 290015Z AUTO 33014G17KT 10SM CLR 15/04 A3014 RMK AO2 LTG DSNT SE
KECS 282355Z AUTO 35022G37KT 10SM -RA SCT014 SCT022 SCT070 16/02 A3014 RMK AO2 LTG DSNT N AND SE
KECS 282335Z AUTO 33025G30KT 10SM -RA SCT070 SCT085 16/02 A3015 RMK AO2
KECS 282315Z AUTO 32014G29KT 10SM SCT075 17/00 A3012 RMK AO2 LTG DSNT E
KECS 282255Z AUTO 33032G40KT 10SM SCT075 18/01 A3012 RMK AO2 LTG DSNT E
KECS 282235Z AUTO 31021G29KT 10SM TS CLR 21/01 A3009 RMK AO2 LTG DSNT NE
KECS 282215Z AUTO 30018G25KT 10SM VCTS CLR 21/03 A3010 RMK AO2 LTG DSNT NE AND S
KECS 282155Z AUTO 29016G24KT 10SM CLR 20/04 A3011 RMK AO2
KECS 282135Z AUTO 31013G22KT 10SM VCTS CLR 18/05 A3012 RMK AO2
KECS 282115Z AUTO 32013G20KT 10SM CLR 16/06 A3013 RMK AO2 LTG DSNT N
KECS 282055Z AUTO 32004KT 10SM -RA SCT011 SCT017 SCT023 13/06 A3014 RMK AO2
KECS 282035Z AUTO 35014G27KT 10SM -RA SCT011 SCT019 BKN027 12/05 A3016 RMK AO2 LTG DSNT N THRU E
KECS 282015Z AUTO 34020G31KT 10SM SCT070 18/02 A3013 RMK AO2 LTG DSNT E
KECS 281955Z AUTO 33019G25KT 10SM CLR 19/01 A3013 RMK AO2
KECS 281935Z AUTO 31018G26KT 10SM CLR 20/01 A3012 RMK AO2
KECS 281915Z AUTO 33017G25KT 10SM SCT060 20/02 A3013 RMK AO2 LTG DSNT E
KECS 281855Z AUTO 31016G28KT 10SM VCTS SCT060 19/02 A3015 RMK AO2 LTG DSNT E
KECS 281835Z AUTO 32018G26KT 10SM TS CLR 20/02 A3015 RMK AO2 LTG DSNT NE
KECS 281815Z AUTO 31016G24KT 10SM CLR 19/02 A3015 RMK AO2 LTG DSNT N
KECS 281755Z AUTO 32015G25KT 292V352 10SM CLR 19/02 A3016 RMK AO2
KECS 281735Z AUTO 33012G24KT 10SM CLR 18/03 A3016 RMK AO2
KECS 281715Z AUTO 33012G18KT 10SM CLR 18/03 A3017 RMK AO2
KECS 281655Z AUTO 34014G19KT 10SM CLR 17/03 A3017 RMK AO2
KECS 281635Z AUTO 31013G17KT 10SM CLR 16/03 A3017 RMK AO2
KECS 281615Z AUTO 32013G20KT 10SM CLR 16/03 A3017 RMK AO2
KECS 281555Z AUTO 32015G23KT 10SM CLR 16/03 A3019 RMK AO2
KECS 281535Z AUTO 32006G16KT 10SM CLR 15/04 A3018 RMK AO2
KECS 281515Z AUTO 31014G19KT 10SM CLR 14/04 A3019 RMK AO2
KECS 281455Z AUTO 30015G20KT 10SM CLR 13/04 A3019 RMK AO2
KECS 281435Z AUTO 30011KT 10SM SCT070 13/05 A3019 RMK AO2
KECS 281415Z AUTO 32008KT 10SM SCT075 12/04 A3019 RMK AO2
KECS 281355Z AUTO 31008KT 292V352 10SM CLR 11/05 A3019 RMK AO2
KECS 281335Z AUTO 33003KT 10SM SCT090 09/05 A3019 RMK AO2
KECS 281315Z AUTO 30005KT 10SM CLR 07/06 A3018 RMK AO2
KECS 281255Z AUTO 27003KT 10SM CLR 07/06 A3017 RMK AO2
KECS 281235Z AUTO 29005KT 10SM CLR 07/04 A3016 RMK AO2
KECS 281215Z AUTO 35005KT 10SM CLR 06/05 A3015 RMK AO2
KECS 281155Z AUTO 35007KT 10SM SCT090 05/03 A3015 RMK AO2
KECS 281135Z AUTO 36006KT 10SM CLR 05/03 A3015 RMK AO2
KECS 281115Z AUTO 35007KT 10SM CLR 05/03 A3014 RMK AO2
KECS 281055Z AUTO 36007KT 10SM CLR 05/03 A3014 RMK AO2
KECS 281035Z AUTO 34004KT 10SM CLR 05/03 A3014 RMK AO2
KECS 281015Z AUTO 33004KT 10SM CLR 05/03 A3014 RMK AO2
KECS 280955Z AUTO 34003KT 10SM CLR 05/03 A3014 RMK AO2
KECS 280935Z AUTO 03003KT 10SM CLR 05/03 A3013 RMK AO2
KECS 280915Z AUTO 36005KT 10SM CLR 06/03 A3013 RMK AO2
KECS 280855Z AUTO 00000KT 10SM CLR 05/03 A3014 RMK AO2
KECS 280835Z AUTO 18006KT 10SM CLR 06/03 A3014 RMK AO2
KECS 280815Z AUTO 00000KT 10SM CLR 05/03 A3014 RMK AO2
KECS 280755Z AUTO 35003KT 10SM CLR 06/03 A3014 RMK AO2
KECS 280735Z AUTO 35007KT 10SM CLR 07/03 A3014 RMK AO2
KECS 280715Z AUTO 32006KT 10SM CLR 07/03 A3015 RMK AO2
KECS 280655Z AUTO 33006KT 10SM CLR 06/05 A3015 RMK AO2
KECS 280635Z AUTO 30008KT 10SM CLR 07/04 A3014 RMK AO2
KECS 280615Z AUTO 29013KT 10SM CLR 08/04 A3014 RMK AO2
KECS 280555Z AUTO 30007KT 10SM CLR 08/05 A3014 RMK AO2
KECS 280535Z AUTO 30007KT 10SM CLR 09/04 A3014 RMK AO2
KECS 280515Z AUTO 01011KT 10SM SCT085 10/04 A3014 RMK AO2
KECS 280455Z AUTO 04004KT 10SM SCT010 SCT017 SCT070 11/04 A3013 RMK AO2
KECS 280435Z AUTO 01010G19KT 10SM SCT011 SCT019 SCT026 11/05 A3015 RMK AO2
KECS 280415Z AUTO 02016G29KT 10SM -RA SCT011 BKN019 BKN026 10/05 A3014 RMK AO2
KECS 280355Z AUTO 34011G15KT 10SM CLR 13/02 A3013 RMK AO2
KECS 280335Z AUTO 36008KT 10SM CLR 12/02 A3012 RMK AO2
KECS 280315Z AUTO 34006KT 10SM CLR 13/01 A3011 RMK AO2
KECS 280255Z AUTO 33010G19KT 10SM CLR 14/00 A3011 RMK AO2
KECS 280235Z AUTO 33006KT 10SM SCT100 14/00 A3010 RMK AO2
KECS 280215Z AUTO 33005KT 10SM CLR 15/00 A3010 RMK AO2
KECS 280155Z AUTO 33008KT 10SM CLR 16/00 A3010 RMK AO2
KECS 280135Z AUTO 34012G18KT 10SM SCT080 17/00 A3010 RMK AO2
KECS 280115Z AUTO 32013G21KT 10SM SCT080 17/M01 A3009 RMK AO2
KECS 280055Z AUTO 33018G25KT 10SM CLR 17/M02 A3009 RMK AO2
KECS 280035Z AUTO 31018G25KT 10SM CLR 17/M02 A3009 RMK AO2
KECS 280015Z AUTO 31018G23KT 10SM CLR 18/M02 A3009 RMK AO2
KECS 272355Z AUTO 30022G27KT 10SM CLR 18/M01 A3009 RMK AO2
KECS 272335Z AUTO 30019G23KT 10SM CLR 18/M02 A3009 RMK AO2


Page loaded:  11:33 UTC  |   04:33 AM Pacific  |   05:33 AM Mountain  |   06:33 AM Central  |   07:33 AM Eastern

 

ADVISORIES

FORECASTS

FORECASTS

OBSERVATIONS

USER TOOLS

ABOUT US